<?xml version='1.0' encoding='UTF-8'?><gpx version="1.1" creator="JPX - https://github.com/jenetics/jpx" xmlns="http://www.topografix.com/GPX/1/1"><trk><trkseg><trkpt lat="43.350716" lon="11.9881893"><ele>293.0</ele><time>2026-04-25T07:12:51.605Z</time></trkpt><trkpt lat="43.3509421" lon="11.9885618"><ele>293.0</ele><time>2026-04-25T07:12:53.703Z</time></trkpt><trkpt lat="43.3509839" lon="11.9886509"><ele>293.0</ele><time>2026-04-25T07:12:54.678Z</time></trkpt><trkpt lat="43.3530071" lon="11.9878621"><ele>304.0</ele><time>2026-04-25T07:14:41.036Z</time></trkpt><trkpt lat="43.3557117" lon="11.9886506"><ele>293.0</ele><time>2026-04-25T07:15:38.54Z</time></trkpt><trkpt lat="43.3528746" lon="11.9877734"><ele>324.0</ele><time>2026-04-25T07:16:16.975Z</time></trkpt><trkpt lat="43.3595543" lon="11.9804144"><ele>286.0</ele><time>2026-04-25T07:20:07.496Z</time></trkpt><trkpt lat="43.3463398" lon="11.9755736"><ele>286.0</ele><time>2026-04-25T07:20:58.35Z</time></trkpt><trkpt lat="43.3458677" lon="11.9755421"><ele>287.0</ele><time>2026-04-25T07:21:11.662Z</time></trkpt><trkpt lat="43.3451842" lon="11.974708"><ele>293.0</ele><time>2026-04-25T07:21:18.153Z</time></trkpt><trkpt lat="43.3434519" lon="11.9706368"><ele>279.0</ele><time>2026-04-25T07:23:00.095Z</time></trkpt><trkpt lat="43.3429812" lon="11.9673206"><ele>268.0</ele><time>2026-04-25T07:23:27.077Z</time></trkpt><trkpt lat="43.3412445" lon="11.9545729"><ele>265.0</ele><time>2026-04-25T07:27:26.557Z</time></trkpt><trkpt lat="43.3387529" lon="11.948064"><ele>262.0</ele><time>2026-04-25T07:29:38.726Z</time></trkpt><trkpt lat="43.3385032" lon="11.94608"><ele>263.0</ele><time>2026-04-25T07:30:04.542Z</time></trkpt><trkpt lat="43.3399548" lon="11.9450943"><ele>264.0</ele><time>2026-04-25T07:30:23.759Z</time></trkpt><trkpt lat="43.3407836" lon="11.9456165"><ele>262.0</ele><time>2026-04-25T07:30:57.291Z</time></trkpt><trkpt lat="43.3407168" lon="11.9442725"><ele>262.0</ele><time>2026-04-25T07:31:41.124Z</time></trkpt><trkpt lat="43.3412543" lon="11.9406293"><ele>265.0</ele><time>2026-04-25T07:32:14.95Z</time></trkpt><trkpt lat="43.3422833" lon="11.9394213"><ele>264.0</ele><time>2026-04-25T07:33:06.501Z</time></trkpt><trkpt lat="43.3423222" lon="11.9349497"><ele>264.0</ele><time>2026-04-25T07:34:28.674Z</time></trkpt><trkpt lat="43.3423524" lon="11.9348465"><ele>264.0</ele><time>2026-04-25T07:34:35.122Z</time></trkpt><trkpt lat="43.3418034" lon="11.933352"><ele>263.0</ele><time>2026-04-25T07:34:42.929Z</time></trkpt><trkpt lat="43.3416192" lon="11.9327497"><ele>264.0</ele><time>2026-04-25T07:34:55.863Z</time></trkpt><trkpt lat="43.3411921" lon="11.9316812"><ele>264.0</ele><time>2026-04-25T07:35:28.311Z</time></trkpt><trkpt lat="43.3409495" lon="11.9313796"><ele>264.0</ele><time>2026-04-25T07:35:34.78Z</time></trkpt><trkpt lat="43.3408074" lon="11.9309693"><ele>263.0</ele><time>2026-04-25T07:35:41.213Z</time></trkpt><trkpt lat="43.3415993" lon="11.9327789"><ele>264.0</ele><time>2026-04-25T07:36:00.608Z</time></trkpt><trkpt lat="43.3400538" lon="11.930417"><ele>263.0</ele><time>2026-04-25T07:36:07.202Z</time></trkpt><trkpt lat="43.34202" lon="11.9286737"><ele>260.0</ele><time>2026-04-25T07:36:33.21Z</time></trkpt><trkpt lat="43.3401581" lon="11.9276482"><ele>260.0</ele><time>2026-04-25T07:36:39.727Z</time></trkpt><trkpt lat="43.3400227" lon="11.9278393"><ele>260.0</ele><time>2026-04-25T07:36:46.333Z</time></trkpt><trkpt lat="43.3399489" lon="11.9276471"><ele>260.0</ele><time>2026-04-25T07:36:51.847Z</time></trkpt><trkpt lat="43.3393354" lon="11.9257272"><ele>256.0</ele><time>2026-04-25T07:37:50.716Z</time></trkpt><trkpt lat="43.3370403" lon="11.9272266"><ele>265.0</ele><time>2026-04-25T07:38:29.404Z</time></trkpt><trkpt lat="43.3387338" lon="11.9243663"><ele>265.0</ele><time>2026-04-25T07:38:42.316Z</time></trkpt><trkpt lat="43.338677" lon="11.9244913"><ele>265.0</ele><time>2026-04-25T07:38:55.215Z</time></trkpt><trkpt lat="43.3347921" lon="11.9264232"><ele>271.0</ele><time>2026-04-25T07:39:01.66Z</time></trkpt><trkpt lat="43.3381698" lon="11.9228143"><ele>271.0</ele><time>2026-04-25T07:39:14.554Z</time></trkpt><trkpt lat="43.3384784" lon="11.9225753"><ele>271.0</ele><time>2026-04-25T07:39:21.076Z</time></trkpt><trkpt lat="43.3384669" lon="11.9220976"><ele>266.0</ele><time>2026-04-25T07:39:26.679Z</time></trkpt><trkpt lat="43.33851" lon="11.9213204"><ele>266.0</ele><time>2026-04-25T07:39:39.685Z</time></trkpt><trkpt lat="43.3385713" lon="11.9211771"><ele>266.0</ele><time>2026-04-25T07:39:45.717Z</time></trkpt><trkpt lat="43.3388875" lon="11.9207517"><ele>267.5</ele><time>2026-04-25T07:39:53.551Z</time></trkpt><trkpt lat="43.3390405" lon="11.9206176"><ele>269.0</ele><time>2026-04-25T07:39:59.304Z</time></trkpt><trkpt lat="43.3397996" lon="11.919687"><ele>269.0</ele><time>2026-04-25T07:40:12.799Z</time></trkpt><trkpt lat="43.3398941" lon="11.9193036"><ele>269.0</ele><time>2026-04-25T07:40:19.303Z</time></trkpt><trkpt lat="43.3400403" lon="11.9191255"><ele>266.0</ele><time>2026-04-25T07:40:24.443Z</time></trkpt><trkpt lat="43.3402689" lon="11.9186854"><ele>263.0</ele><time>2026-04-25T07:40:32.552Z</time></trkpt><trkpt lat="43.341105" lon="11.9214591"><ele>265.0</ele><time>2026-04-25T07:40:37.859Z</time></trkpt><trkpt lat="43.3406359" lon="11.917778"><ele>263.0</ele><time>2026-04-25T07:40:44.863Z</time></trkpt><trkpt lat="43.3410493" lon="11.9175425"><ele>261.0</ele><time>2026-04-25T07:40:52.425Z</time></trkpt><trkpt lat="43.3412009" lon="11.9174123"><ele>265.0</ele><time>2026-04-25T07:40:59.154Z</time></trkpt><trkpt lat="43.341399" lon="11.9168513"><ele>265.0</ele><time>2026-04-25T07:41:04.952Z</time></trkpt><trkpt lat="43.3415873" lon="11.9167435"><ele>265.0</ele><time>2026-04-25T07:41:12.543Z</time></trkpt><trkpt lat="43.3416185" lon="11.9165886"><ele>265.0</ele><time>2026-04-25T07:41:18.17Z</time></trkpt><trkpt lat="43.3417912" lon="11.9162133"><ele>265.0</ele><time>2026-04-25T07:41:25.761Z</time></trkpt><trkpt lat="43.3417659" lon="11.9160871"><ele>265.0</ele><time>2026-04-25T07:41:32.382Z</time></trkpt><trkpt lat="43.3418499" lon="11.9160237"><ele>265.0</ele><time>2026-04-25T07:41:37.815Z</time></trkpt><trkpt lat="43.3420084" lon="11.9159612"><ele>265.0</ele><time>2026-04-25T07:41:44.334Z</time></trkpt><trkpt lat="43.3424406" lon="11.9157968"><ele>266.3333333333333</ele><time>2026-04-25T07:41:50.777Z</time></trkpt><trkpt lat="43.3424212" lon="11.915709"><ele>267.6666666666667</ele><time>2026-04-25T07:41:57.435Z</time></trkpt><trkpt lat="43.3427653" lon="11.915716"><ele>269.0</ele><time>2026-04-25T07:42:10.848Z</time></trkpt><trkpt lat="43.3428995" lon="11.9157312"><ele>272.0</ele><time>2026-04-25T07:42:17.612Z</time></trkpt><trkpt lat="43.3430948" lon="11.916089"><ele>275.0</ele><time>2026-04-25T07:42:24.648Z</time></trkpt><trkpt lat="43.3433114" lon="11.9161003"><ele>275.0</ele><time>2026-04-25T07:42:31.022Z</time></trkpt><trkpt lat="43.3433768" lon="11.9162713"><ele>275.0</ele><time>2026-04-25T07:42:38.436Z</time></trkpt><trkpt lat="43.3434652" lon="11.9163247"><ele>275.0</ele><time>2026-04-25T07:42:44.945Z</time></trkpt><trkpt lat="43.3435898" lon="11.9163551"><ele>275.0</ele><time>2026-04-25T07:42:51.596Z</time></trkpt><trkpt lat="43.3437168" lon="11.916502"><ele>275.0</ele><time>2026-04-25T07:42:57.747Z</time></trkpt><trkpt lat="43.3437781" lon="11.9165738"><ele>275.0</ele><time>2026-04-25T07:43:05.902Z</time></trkpt><trkpt lat="43.3439696" lon="11.9168691"><ele>275.0</ele><time>2026-04-25T07:43:11.548Z</time></trkpt><trkpt lat="43.3442012" lon="11.9169334"><ele>277.33333333333337</ele><time>2026-04-25T07:43:18.288Z</time></trkpt><trkpt lat="43.3442543" lon="11.9169894"><ele>279.6666666666667</ele><time>2026-04-25T07:43:24.751Z</time></trkpt><trkpt lat="43.3443665" lon="11.9170481"><ele>282.0</ele><time>2026-04-25T07:43:31.702Z</time></trkpt><trkpt lat="43.3446502" lon="11.9169791"><ele>282.0</ele><time>2026-04-25T07:43:45.48Z</time></trkpt><trkpt lat="43.3444418" lon="11.9172302"><ele>282.0</ele><time>2026-04-25T07:44:12.735Z</time></trkpt><trkpt lat="43.3448426" lon="11.9173815"><ele>293.0</ele><time>2026-04-25T07:44:19.355Z</time></trkpt><trkpt lat="43.3447819" lon="11.9180248"><ele>288.0</ele><time>2026-04-25T07:44:26.048Z</time></trkpt><trkpt lat="43.3450947" lon="11.9175336"><ele>289.6666666666667</ele><time>2026-04-25T07:44:32.664Z</time></trkpt><trkpt lat="43.3451137" lon="11.9178479"><ele>291.33333333333337</ele><time>2026-04-25T07:44:51.554Z</time></trkpt><trkpt lat="43.3451093" lon="11.9180328"><ele>293.0</ele><time>2026-04-25T07:44:59.058Z</time></trkpt><trkpt lat="43.3450862" lon="11.9182787"><ele>293.0</ele><time>2026-04-25T07:45:05.531Z</time></trkpt><trkpt lat="43.3448605" lon="11.9182853"><ele>293.0</ele><time>2026-04-25T07:45:12.084Z</time></trkpt><trkpt lat="43.3447713" lon="11.918313"><ele>293.0</ele><time>2026-04-25T07:45:18.641Z</time></trkpt><trkpt lat="43.3446747" lon="11.9186726"><ele>293.0</ele><time>2026-04-25T07:45:25.247Z</time></trkpt><trkpt lat="43.3446467" lon="11.9187636"><ele>293.0</ele><time>2026-04-25T07:45:31.913Z</time></trkpt><trkpt lat="43.3444908" lon="11.9192089"><ele>293.0</ele><time>2026-04-25T07:45:45.115Z</time></trkpt><trkpt lat="43.34446" lon="11.9193212"><ele>296.0</ele><time>2026-04-25T07:45:51.815Z</time></trkpt><trkpt lat="43.3443822" lon="11.9195813"><ele>299.0</ele><time>2026-04-25T07:45:57.373Z</time></trkpt><trkpt lat="43.344368" lon="11.9197107"><ele>302.0</ele><time>2026-04-25T07:46:04.465Z</time></trkpt><trkpt lat="43.3443144" lon="11.9200835"><ele>305.33333333333337</ele><time>2026-04-25T07:46:11.123Z</time></trkpt><trkpt lat="43.3442542" lon="11.9202497"><ele>308.6666666666667</ele><time>2026-04-25T07:46:18.362Z</time></trkpt><trkpt lat="43.3442362" lon="11.9206433"><ele>312.0</ele><time>2026-04-25T07:46:31.621Z</time></trkpt><trkpt lat="43.3441505" lon="11.9209444"><ele>314.6666666666667</ele><time>2026-04-25T07:46:43.73Z</time></trkpt><trkpt lat="43.3440416" lon="11.9211289"><ele>317.33333333333337</ele><time>2026-04-25T07:46:50.582Z</time></trkpt><trkpt lat="43.3438079" lon="11.9211824"><ele>320.0</ele><time>2026-04-25T07:46:57.239Z</time></trkpt><trkpt lat="43.3437607" lon="11.9212763"><ele>320.0</ele><time>2026-04-25T07:50:15.356Z</time></trkpt><trkpt lat="43.3439134" lon="11.921476"><ele>320.0</ele><time>2026-04-25T07:50:22.009Z</time></trkpt><trkpt lat="43.3439708" lon="11.9215495"><ele>320.0</ele><time>2026-04-25T07:50:35.281Z</time></trkpt><trkpt lat="43.3440662" lon="11.9220326"><ele>329.0</ele><time>2026-04-25T07:50:41.938Z</time></trkpt><trkpt lat="43.3448252" lon="11.9229296"><ele>318.0</ele><time>2026-04-25T07:51:28.786Z</time></trkpt><trkpt lat="43.345433" lon="11.9240519"><ele>317.0</ele><time>2026-04-25T07:51:54.951Z</time></trkpt><trkpt lat="43.345826" lon="11.9246591"><ele>314.0</ele><time>2026-04-25T07:52:14.613Z</time></trkpt><trkpt lat="43.3466867" lon="11.9252441"><ele>320.0</ele><time>2026-04-25T07:52:46.653Z</time></trkpt><trkpt lat="43.3475512" lon="11.9254434"><ele>336.0</ele><time>2026-04-25T07:53:19.735Z</time></trkpt><trkpt lat="43.3484619" lon="11.9250511"><ele>328.0</ele><time>2026-04-25T07:54:17.562Z</time></trkpt><trkpt lat="43.3484725" lon="11.9251981"><ele>320.0</ele><time>2026-04-25T07:54:23.997Z</time></trkpt><trkpt lat="43.3484708" lon="11.9258218"><ele>335.0</ele><time>2026-04-25T07:54:31.565Z</time></trkpt><trkpt lat="43.3496957" lon="11.925424"><ele>380.0</ele><time>2026-04-25T07:55:23.376Z</time></trkpt><trkpt lat="43.349877" lon="11.9240642"><ele>350.0</ele><time>2026-04-25T07:56:01.968Z</time></trkpt><trkpt lat="43.3511304" lon="11.9245766"><ele>380.0</ele><time>2026-04-25T07:57:39.005Z</time></trkpt><trkpt lat="43.3499119" lon="11.9241135"><ele>368.0</ele><time>2026-04-25T07:57:57.353Z</time></trkpt><trkpt lat="43.3497525" lon="11.9244725"><ele>356.0</ele><time>2026-04-25T07:58:04.674Z</time></trkpt><trkpt lat="43.350556" lon="11.9309226"><ele>352.0</ele><time>2026-04-25T07:58:55.893Z</time></trkpt><trkpt lat="43.3523101" lon="11.9307312"><ele>375.0</ele><time>2026-04-25T08:02:21.475Z</time></trkpt><trkpt lat="43.353156" lon="11.9295956"><ele>313.0</ele><time>2026-04-25T08:02:53.848Z</time></trkpt><trkpt lat="43.3414254" lon="11.9248963"><ele>380.0</ele><time>2026-04-25T08:03:45.515Z</time></trkpt><trkpt lat="43.3530641" lon="11.931519"><ele>314.0</ele><time>2026-04-25T08:04:17.652Z</time></trkpt><trkpt lat="43.3505605" lon="11.9309093"><ele>351.0</ele><time>2026-04-25T08:04:56.657Z</time></trkpt><trkpt lat="43.3523047" lon="11.9312806"><ele>351.0</ele><time>2026-04-25T08:05:03.16Z</time></trkpt><trkpt lat="43.3523933" lon="11.9313996"><ele>351.0</ele><time>2026-04-25T08:05:16.248Z</time></trkpt><trkpt lat="43.3528363" lon="11.9317496"><ele>366.0</ele><time>2026-04-25T08:05:22.819Z</time></trkpt><trkpt lat="43.3527649" lon="11.9332675"><ele>366.0</ele><time>2026-04-25T08:05:35.867Z</time></trkpt><trkpt lat="43.3528152" lon="11.9333329"><ele>366.0</ele><time>2026-04-25T08:05:42.37Z</time></trkpt><trkpt lat="43.3527749" lon="11.9334145"><ele>366.0</ele><time>2026-04-25T08:05:48.928Z</time></trkpt><trkpt lat="43.3528373" lon="11.9336049"><ele>366.0</ele><time>2026-04-25T08:05:55.393Z</time></trkpt><trkpt lat="43.3529014" lon="11.9336155"><ele>366.0</ele><time>2026-04-25T08:06:01.885Z</time></trkpt><trkpt lat="43.3424026" lon="11.924207"><ele>426.0</ele><time>2026-04-25T08:09:32.045Z</time></trkpt><trkpt lat="43.357043" lon="11.9413754"><ele>273.0</ele><time>2026-04-25T08:13:53.851Z</time></trkpt><trkpt lat="43.344759" lon="11.9403535"><ele>476.0</ele><time>2026-04-25T08:18:49.409Z</time></trkpt><trkpt lat="43.3592254" lon="11.9483236"><ele>508.0</ele><time>2026-04-25T08:22:39.82Z</time></trkpt><trkpt lat="43.359337" lon="11.9495531"><ele>508.0</ele><time>2026-04-25T08:22:46.212Z</time></trkpt><trkpt lat="43.3593525" lon="11.9497625"><ele>508.0</ele><time>2026-04-25T08:22:52.63Z</time></trkpt><trkpt lat="43.3592307" lon="11.9483229"><ele>502.0</ele><time>2026-04-25T08:23:05.504Z</time></trkpt><trkpt lat="43.3577144" lon="11.9493001"><ele>508.0</ele><time>2026-04-25T08:24:28.866Z</time></trkpt><trkpt lat="43.3593507" lon="11.9497721"><ele>380.0</ele><time>2026-04-25T08:45:15.493Z</time></trkpt><trkpt lat="43.3530642" lon="11.9315176"><ele>375.0</ele><time>2026-04-25T08:49:46.009Z</time></trkpt><trkpt lat="43.3531585" lon="11.929602"><ele>352.0</ele><time>2026-04-25T08:50:24.477Z</time></trkpt><trkpt lat="43.3523103" lon="11.9307304"><ele>351.0</ele><time>2026-04-25T08:50:37.337Z</time></trkpt><trkpt lat="43.3511939" lon="11.9274721"><ele>368.0</ele><time>2026-04-25T08:51:09.45Z</time></trkpt><trkpt lat="43.3513836" lon="11.9256502"><ele>342.0</ele><time>2026-04-25T08:51:22.348Z</time></trkpt><trkpt lat="43.3511988" lon="11.9250762"><ele>320.0</ele><time>2026-04-25T08:51:28.744Z</time></trkpt><trkpt lat="43.3483233" lon="11.9258929"><ele>337.0</ele><time>2026-04-25T08:52:07.31Z</time></trkpt><trkpt lat="43.3475236" lon="11.9249816"><ele>317.0</ele><time>2026-04-25T08:52:26.652Z</time></trkpt><trkpt lat="43.3460984" lon="11.9249245"><ele>317.0</ele><time>2026-04-25T08:52:52.547Z</time></trkpt><trkpt lat="43.3455742" lon="11.924273"><ele>329.0</ele><time>2026-04-25T08:53:11.946Z</time></trkpt><trkpt lat="43.3450039" lon="11.9232045"><ele>311.0</ele><time>2026-04-25T08:53:18.434Z</time></trkpt><trkpt lat="43.3436881" lon="11.9235049"><ele>308.5</ele><time>2026-04-25T08:54:09.999Z</time></trkpt><trkpt lat="43.3435922" lon="11.9231266"><ele>306.0</ele><time>2026-04-25T08:54:16.55Z</time></trkpt><trkpt lat="43.3451787" lon="11.9248443"><ele>277.0</ele><time>2026-04-25T08:54:42.776Z</time></trkpt><trkpt lat="43.3419474" lon="11.9266767"><ele>273.0</ele><time>2026-04-25T08:55:21.703Z</time></trkpt><trkpt lat="43.3424476" lon="11.9275073"><ele>264.0</ele><time>2026-04-25T08:55:34.72Z</time></trkpt><trkpt lat="43.3421927" lon="11.9293115"><ele>271.0</ele><time>2026-04-25T08:55:40.25Z</time></trkpt><trkpt lat="43.3432965" lon="11.928266"><ele>286.0</ele><time>2026-04-25T08:55:54.284Z</time></trkpt><trkpt lat="43.3460009" lon="11.9272324"><ele>271.0</ele><time>2026-04-25T08:55:59.711Z</time></trkpt><trkpt lat="43.3433054" lon="11.9282168"><ele>286.0</ele><time>2026-04-25T08:56:26.808Z</time></trkpt><trkpt lat="43.3459994" lon="11.9272349"><ele>268.0</ele><time>2026-04-25T08:56:45.352Z</time></trkpt><trkpt lat="43.3438302" lon="11.93143"><ele>267.0</ele><time>2026-04-25T08:56:59.157Z</time></trkpt><trkpt lat="43.3437782" lon="11.932128"><ele>267.0</ele><time>2026-04-25T08:57:05.593Z</time></trkpt><trkpt lat="43.3434891" lon="11.9321662"><ele>267.0</ele><time>2026-04-25T08:57:12.044Z</time></trkpt><trkpt lat="43.343782" lon="11.9335357"><ele>266.5</ele><time>2026-04-25T08:57:23.84Z</time></trkpt><trkpt lat="43.3438655" lon="11.9341"><ele>266.0</ele><time>2026-04-25T08:57:51.024Z</time></trkpt><trkpt lat="43.3434013" lon="11.9355454"><ele>282.0</ele><time>2026-04-25T08:57:57.516Z</time></trkpt><trkpt lat="43.3460226" lon="11.9351026"><ele>270.0</ele><time>2026-04-25T08:58:10.417Z</time></trkpt><trkpt lat="43.3434011" lon="11.9355352"><ele>258.0</ele><time>2026-04-25T08:58:23.359Z</time></trkpt><trkpt lat="43.3391853" lon="11.9358022"><ele>262.0</ele><time>2026-04-25T08:59:40.626Z</time></trkpt><trkpt lat="43.341174" lon="11.9405367"><ele>264.0</ele><time>2026-04-25T08:59:59.923Z</time></trkpt><trkpt lat="43.3407973" lon="11.9456544"><ele>262.0</ele><time>2026-04-25T09:00:51.599Z</time></trkpt><trkpt lat="43.3407739" lon="11.9440577"><ele>263.0</ele><time>2026-04-25T09:01:10.926Z</time></trkpt><trkpt lat="43.3399678" lon="11.9450966"><ele>262.0</ele><time>2026-04-25T09:01:42.971Z</time></trkpt><trkpt lat="43.3385024" lon="11.9459972"><ele>289.0</ele><time>2026-04-25T09:01:49.372Z</time></trkpt><trkpt lat="43.3399229" lon="11.9598231"><ele>279.0</ele><time>2026-04-25T09:09:17.827Z</time></trkpt><trkpt lat="43.3429854" lon="11.9673198"><ele>304.0</ele><time>2026-04-25T09:11:25.955Z</time></trkpt><trkpt lat="43.3468276" lon="11.9266036"><ele>295.0</ele><time>2026-04-25T09:13:48.847Z</time></trkpt><trkpt lat="43.3509817" lon="11.9888017"><ele>295.0</ele><time>2026-04-25T09:21:30.108Z</time></trkpt></trkseg></trk></gpx>